(°C)
21°
19°
18°
16°
14°
12°
11°
(°C)
15°
14°
13°
12°
11°
10°
WSW
W
W
W
W
W
SW
(km/h)
27-48
26-49
24-48
20-41
15-31
10-23
10-20
(mm)
0.1
0
0
0
0
0
0
(%)
32
19
11
20
28
36
26

Wysokość słońca

/ 45.7°
sun-icon
UV 13
05:34
20:42
Sierp przybywający (6°)
05:44
21:40

METAR dla Walden (K33V)

Czas Warunki Temperatura/
Punkt rosy
Wiatr Widzialność Pogoda Chmury Ciśn. atm. Zmień Surowy
VFR 23°C / 4°C 260º 11kt Gust 17kt >10km - Clear - K33V 292155Z AUTO 26011G17KT 10SM CLR 23/04 A3037 RMK AO1
VFR 23°C / 4°C 240º 10kt Gust 19kt >10km - Scattered Clouds 8000ft - K33V 292135Z AUTO 24010G19KT 10SM SCT080 23/04 A3037 RMK AO1
VFR 23°C / 5°C 250º 4kt >10km - Scattered Clouds 8000ft - K33V 292115Z AUTO 25004KT 10SM SCT080 23/05 A3038 RMK AO1
VFR 21°C / 5°C 190º 4kt Gust 16kt >10km - Clear - K33V 292055Z AUTO 19004G16KT 10SM CLR 21/05 A3039 RMK AO1
VFR 21°C / 8°C 150º 7kt >10km - Clear - K33V 292035Z AUTO 15007KT 10SM CLR 21/08 A3040 RMK AO1
VFR 19°C / 7°C 110º 5kt >10km - Clear - K33V 292015Z AUTO 11005KT 10SM CLR 19/07 A3043 RMK AO1
VFR 18°C / 6°C 100º 4kt >10km - Scattered Clouds 11000ft - K33V 291955Z AUTO 10004KT 10SM SCT110 18/06 A3044 RMK AO1
VFR 16°C / 6°C 80º 3kt >10km - Overcast 11000ft - K33V 291935Z AUTO 08003KT 10SM OVC110 16/06 A3046 RMK AO1
VFR 16°C / 6°C variable 0kt >10km - Scattered Clouds 7000ft
Overcast 10000ft
- K33V 291915Z AUTO 00000KT 10SM SCT070 OVC100 16/06 A3047 RMK AO1
VFR 16°C / 6°C 270º 5kt >10km - Scattered Clouds 7000ft
Broken Clouds 9000ft
Overcast 11000ft
- K33V 291855Z AUTO 27005KT 10SM SCT070 BKN090 OVC110 16/06 A3048 RMK AO1
VFR 16°C / 6°C 270º 15kt Gust 27kt >10km - Scattered Clouds 7000ft
Overcast 8000ft
- K33V 291835Z AUTO 27015G27KT 10SM SCT070 OVC080 16/06 A3049 RMK AO1
VFR 18°C / 3°C 250º 25kt Gust 30kt >10km - Broken Clouds 8000ft
Overcast 9000ft
- K33V 291815Z AUTO 25025G30KT 10SM BKN080 OVC090 18/03 A3047 RMK AO1
VFR 20°C / 6°C 240º 12kt Gust 15kt >10km - Scattered Clouds 8000ft
Broken Clouds 10000ft
- K33V 291755Z AUTO 24012G15KT 10SM SCT080 BKN100 20/06 A3046 RMK AO1
VFR 19°C / 4°C 200º 9kt >10km - Scattered Clouds 10000ft
Scattered Clouds 12000ft
- K33V 291735Z AUTO 20009KT 10SM SCT100 SCT120 19/04 A3046 RMK AO1
VFR 19°C / 3°C 210º 11kt Gust 18kt >10km - Scattered Clouds 9000ft - K33V 291715Z AUTO 21011G18KT 10SM SCT090 19/03 A3045 RMK AO1
VFR 20°C / 4°C 200º 10kt Gust 14kt >10km - Scattered Clouds 9000ft - K33V 291655Z AUTO 20010G14KT 10SM SCT090 20/04 A3044 RMK AO1
VFR 21°C / 3°C 200º 11kt Gust 17kt >10km - Scattered Clouds 10000ft - K33V 291635Z AUTO 20011G17KT 10SM SCT100 21/03 A3044 RMK AO1
VFR 20°C / 3°C 190º 10kt >10km - Broken Clouds 9000ft - K33V 291615Z AUTO 19010KT 10SM BKN090 20/03 A3044 RMK AO1
VFR 19°C / 3°C 210º 11kt Gust 15kt >10km - Broken Clouds 9000ft - K33V 291555Z AUTO 21011G15KT 10SM BKN090 19/03 A3044 RMK AO1
VFR 19°C / 4°C 200º 12kt Gust 17kt >10km - Scattered Clouds 11000ft - K33V 291535Z AUTO 20012G17KT 10SM SCT110 19/04 A3045 RMK AO1
VFR 19°C / 3°C 200º 12kt >10km - Scattered Clouds 12000ft - K33V 291515Z AUTO 20012KT 10SM SCT120 19/03 A3046 RMK AO1
VFR 19°C / 3°C 190º 12kt Gust 16kt >10km - Scattered Clouds 11000ft - K33V 291455Z AUTO 19012G16KT 10SM SCT110 19/03 A3045 RMK AO1
VFR 18°C / 5°C 150º 10kt >10km - Clear - K33V 291435Z AUTO 15010KT 10SM CLR 18/05 A3044 RMK AO1
VFR 15°C / 5°C 150º 8kt >10km - Clear - K33V 291415Z AUTO 15008KT 10SM CLR 15/05 A3045 RMK AO1

VFR

23°C / 4°C

[Więcej]
Wiatr 260º 11kt Gust 17kt
Widzialność >10km
Pogoda -
Chmury Clear
Ciśn. atm.
Zmień -
Surowy K33V 292155Z AUTO 26011G17KT 10SM CLR 23/04 A3037 RMK AO1

VFR

23°C / 4°C

[Więcej]
Wiatr 240º 10kt Gust 19kt
Widzialność >10km
Pogoda -
Chmury Scattered Clouds 8000ft
Ciśn. atm.
Zmień -
Surowy K33V 292135Z AUTO 24010G19KT 10SM SCT080 23/04 A3037 RMK AO1

VFR

23°C / 5°C

[Więcej]
Wiatr 250º 4kt
Widzialność >10km
Pogoda -
Chmury Scattered Clouds 8000ft
Ciśn. atm.
Zmień -
Surowy K33V 292115Z AUTO 25004KT 10SM SCT080 23/05 A3038 RMK AO1

VFR

21°C / 5°C

[Więcej]
Wiatr 190º 4kt Gust 16kt
Widzialność >10km
Pogoda -
Chmury Clear
Ciśn. atm.
Zmień -
Surowy K33V 292055Z AUTO 19004G16KT 10SM CLR 21/05 A3039 RMK AO1

VFR

21°C / 8°C

[Więcej]
Wiatr 150º 7kt
Widzialność >10km
Pogoda -
Chmury Clear
Ciśn. atm.
Zmień -
Surowy K33V 292035Z AUTO 15007KT 10SM CLR 21/08 A3040 RMK AO1

VFR

19°C / 7°C

[Więcej]
Wiatr 110º 5kt
Widzialność >10km
Pogoda -
Chmury Clear
Ciśn. atm.
Zmień -
Surowy K33V 292015Z AUTO 11005KT 10SM CLR 19/07 A3043 RMK AO1

VFR

18°C / 6°C

[Więcej]
Wiatr 100º 4kt
Widzialność >10km
Pogoda -
Chmury Scattered Clouds 11000ft
Ciśn. atm.
Zmień -
Surowy K33V 291955Z AUTO 10004KT 10SM SCT110 18/06 A3044 RMK AO1

VFR

16°C / 6°C

[Więcej]
Wiatr 80º 3kt
Widzialność >10km
Pogoda -
Chmury Overcast 11000ft
Ciśn. atm.
Zmień -
Surowy K33V 291935Z AUTO 08003KT 10SM OVC110 16/06 A3046 RMK AO1

VFR

16°C / 6°C

[Więcej]
Wiatr variable 0kt
Widzialność >10km
Pogoda -
Chmury Scattered Clouds 7000ft
Overcast 10000ft
Ciśn. atm.
Zmień -
Surowy K33V 291915Z AUTO 00000KT 10SM SCT070 OVC100 16/06 A3047 RMK AO1

VFR

16°C / 6°C

[Więcej]
Wiatr 270º 5kt
Widzialność >10km
Pogoda -
Chmury Scattered Clouds 7000ft
Broken Clouds 9000ft
Overcast 11000ft
Ciśn. atm.
Zmień -
Surowy K33V 291855Z AUTO 27005KT 10SM SCT070 BKN090 OVC110 16/06 A3048 RMK AO1

VFR

16°C / 6°C

[Więcej]
Wiatr 270º 15kt Gust 27kt
Widzialność >10km
Pogoda -
Chmury Scattered Clouds 7000ft
Overcast 8000ft
Ciśn. atm.
Zmień -
Surowy K33V 291835Z AUTO 27015G27KT 10SM SCT070 OVC080 16/06 A3049 RMK AO1

VFR

18°C / 3°C

[Więcej]
Wiatr 250º 25kt Gust 30kt
Widzialność >10km
Pogoda -
Chmury Broken Clouds 8000ft
Overcast 9000ft
Ciśn. atm.
Zmień -
Surowy K33V 291815Z AUTO 25025G30KT 10SM BKN080 OVC090 18/03 A3047 RMK AO1

VFR

20°C / 6°C

[Więcej]
Wiatr 240º 12kt Gust 15kt
Widzialność >10km
Pogoda -
Chmury Scattered Clouds 8000ft
Broken Clouds 10000ft
Ciśn. atm.
Zmień -
Surowy K33V 291755Z AUTO 24012G15KT 10SM SCT080 BKN100 20/06 A3046 RMK AO1

VFR

19°C / 4°C

[Więcej]
Wiatr 200º 9kt
Widzialność >10km
Pogoda -
Chmury Scattered Clouds 10000ft
Scattered Clouds 12000ft
Ciśn. atm.
Zmień -
Surowy K33V 291735Z AUTO 20009KT 10SM SCT100 SCT120 19/04 A3046 RMK AO1

VFR

19°C / 3°C

[Więcej]
Wiatr 210º 11kt Gust 18kt
Widzialność >10km
Pogoda -
Chmury Scattered Clouds 9000ft
Ciśn. atm.
Zmień -
Surowy K33V 291715Z AUTO 21011G18KT 10SM SCT090 19/03 A3045 RMK AO1

VFR

20°C / 4°C

[Więcej]
Wiatr 200º 10kt Gust 14kt
Widzialność >10km
Pogoda -
Chmury Scattered Clouds 9000ft
Ciśn. atm.
Zmień -
Surowy K33V 291655Z AUTO 20010G14KT 10SM SCT090 20/04 A3044 RMK AO1

VFR

21°C / 3°C

[Więcej]
Wiatr 200º 11kt Gust 17kt
Widzialność >10km
Pogoda -
Chmury Scattered Clouds 10000ft
Ciśn. atm.
Zmień -
Surowy K33V 291635Z AUTO 20011G17KT 10SM SCT100 21/03 A3044 RMK AO1

VFR

20°C / 3°C

[Więcej]
Wiatr 190º 10kt
Widzialność >10km
Pogoda -
Chmury Broken Clouds 9000ft
Ciśn. atm.
Zmień -
Surowy K33V 291615Z AUTO 19010KT 10SM BKN090 20/03 A3044 RMK AO1

VFR

19°C / 3°C

[Więcej]
Wiatr 210º 11kt Gust 15kt
Widzialność >10km
Pogoda -
Chmury Broken Clouds 9000ft
Ciśn. atm.
Zmień -
Surowy K33V 291555Z AUTO 21011G15KT 10SM BKN090 19/03 A3044 RMK AO1

VFR

19°C / 4°C

[Więcej]
Wiatr 200º 12kt Gust 17kt
Widzialność >10km
Pogoda -
Chmury Scattered Clouds 11000ft
Ciśn. atm.
Zmień -
Surowy K33V 291535Z AUTO 20012G17KT 10SM SCT110 19/04 A3045 RMK AO1

VFR

19°C / 3°C

[Więcej]
Wiatr 200º 12kt
Widzialność >10km
Pogoda -
Chmury Scattered Clouds 12000ft
Ciśn. atm.
Zmień -
Surowy K33V 291515Z AUTO 20012KT 10SM SCT120 19/03 A3046 RMK AO1

VFR

19°C / 3°C

[Więcej]
Wiatr 190º 12kt Gust 16kt
Widzialność >10km
Pogoda -
Chmury Scattered Clouds 11000ft
Ciśn. atm.
Zmień -
Surowy K33V 291455Z AUTO 19012G16KT 10SM SCT110 19/03 A3045 RMK AO1

VFR

18°C / 5°C

[Więcej]
Wiatr 150º 10kt
Widzialność >10km
Pogoda -
Chmury Clear
Ciśn. atm.
Zmień -
Surowy K33V 291435Z AUTO 15010KT 10SM CLR 18/05 A3044 RMK AO1

VFR

15°C / 5°C

[Więcej]
Wiatr 150º 8kt
Widzialność >10km
Pogoda -
Chmury Clear
Ciśn. atm.
Zmień -
Surowy K33V 291415Z AUTO 15008KT 10SM CLR 15/05 A3045 RMK AO1

Radar i prognoza opadów na teraz dla Walden

Mżawka
Lekkie
Umiarkowane
Intensywne
Bardzo Intensywne
Grad

Wskaźnik lokalizacji jest umieszczony na Walden. Animacja przedstawia radar opadów dla ostatniej godziny, jak również 1h prognozę pogody. Mżawka i lekkie opady mogą być niewidoczne na radarze. Intensywność opadów jest oznaczona kolorami od jasnoniebieskiego do ciemnofioletowego.

Aktualne zdjęcia satelitarne dla Walden, USA

Wskaźnik lokalizacji znajduje się na Walden. [Więcej]

Obraz satelitarny w czasie rzeczywistym łączy światło widzialne w ciągu dnia z promieniowaniem podczerwonym w nocy. W nocy obraz nie jest ciemny, ponieważ promieniowanie podczerwone może wykrywać różnice temperatur. Niestety niskie chmury i mgłę trudno odróżnić od temperatury gruntu, przez co mogą być prawie niewidoczne w nocy. Zdjęcia satelitarne Meteosat dla Europy są aktualizowane w czasie rzeczywistym co 5 minut. Obrazy GOES-16/GOES-17 (Ameryka Północna i Południowa) oraz Himawari (Azja) są aktualizowane co 10 minut.

Powrót do góry